createdAt,value
2022-10-01T00:00:37.888Z,0
2022-10-01T00:01:41.141Z,0
2022-10-01T00:03:48.497Z,0
2022-10-01T00:05:55.326Z,0
2022-10-01T00:06:58.815Z,0
2022-10-01T00:09:05.094Z,0
2022-10-01T00:11:11.218Z,0
2022-10-01T00:13:17.182Z,0
2022-10-01T00:14:19.724Z,0
2022-10-01T00:16:25.515Z,0
2022-10-01T00:18:32.245Z,0
2022-10-01T00:20:38.019Z,0
2022-10-01T00:21:41.705Z,0
2022-10-01T00:23:48.274Z,0
2022-10-01T00:25:53.103Z,0
2022-10-01T00:27:59.634Z,0
2022-10-01T00:29:02.281Z,0
2022-10-01T00:31:09.244Z,0
2022-10-01T00:33:14.189Z,0
2022-10-01T00:35:19.873Z,0
2022-10-01T00:36:23.042Z,0
2022-10-01T00:38:29.700Z,0
2022-10-01T00:40:35.625Z,0
2022-10-01T00:42:42.352Z,0
2022-10-01T00:43:45.709Z,0
2022-10-01T00:45:52.617Z,0
2022-10-01T00:46:55.807Z,0
2022-10-01T00:49:01.333Z,0
2022-10-01T00:51:07.547Z,0
2022-10-01T00:53:14.016Z,0
2022-10-01T00:54:17.178Z,0
2022-10-01T00:56:23.673Z,0
2022-10-01T00:57:27.126Z,0
2022-10-01T00:58:30.199Z,0
2022-10-01T00:59:33.678Z,0
2022-10-01T01:01:40.367Z,0
2022-10-01T01:03:46.702Z,0
2022-10-01T01:04:49.211Z,0
2022-10-01T01:06:55.152Z,0
2022-10-01T01:09:02.091Z,0
2022-10-01T01:10:05.263Z,0
2022-10-01T01:11:08.602Z,0
2022-10-01T01:12:12.054Z,0
2022-10-01T01:14:18.282Z,0
2022-10-01T01:16:25.013Z,0
2022-10-01T01:17:28.168Z,0
2022-10-01T01:19:33.280Z,0
2022-10-01T01:20:36.144Z,0
2022-10-01T01:21:39.870Z,0
2022-10-01T01:22:42.740Z,0
2022-10-01T01:24:50.193Z,0
2022-10-01T01:25:53.698Z,0
2022-10-01T01:28:00.787Z,0
2022-10-01T01:30:06.463Z,0
2022-10-01T01:31:09.240Z,0
2022-10-01T01:33:19.985Z,0
2022-10-01T01:35:25.261Z,0
2022-10-01T01:37:31.760Z,0
2022-10-01T01:38:34.541Z,0
2022-10-01T01:40:41.439Z,0
2022-10-01T01:42:48.312Z,0
2022-10-01T01:43:51.739Z,0
2022-10-01T01:45:58.467Z,0
2022-10-01T01:48:04.536Z,0
2022-10-01T01:50:10.211Z,0
2022-10-01T01:51:13.016Z,0
2022-10-01T01:53:19.163Z,0
2022-10-01T01:55:24.688Z,0
2022-10-01T01:56:28.439Z,0
2022-10-01T01:58:35.095Z,0
2022-10-01T02:00:41.017Z,0
2022-10-01T02:01:44.757Z,0
2022-10-01T02:02:48.611Z,0
2022-10-01T02:03:50.968Z,0
2022-10-01T02:05:57.480Z,0
2022-10-01T02:07:00.347Z,0
2022-10-01T02:09:05.295Z,0
2022-10-01T02:11:11.516Z,0
2022-10-01T02:12:14.921Z,0
2022-10-01T02:14:21.456Z,0
2022-10-01T02:15:23.883Z,0
2022-10-01T02:16:27.993Z,0
2022-10-01T02:17:31.362Z,0
2022-10-01T02:19:36.858Z,0
2022-10-01T02:21:42.886Z,0
2022-10-01T02:22:45.960Z,0
2022-10-01T02:24:52.278Z,0
2022-10-01T02:26:58.613Z,0
2022-10-01T02:28:02.697Z,0
2022-10-01T02:30:09.059Z,0
2022-10-01T02:32:14.894Z,0
2022-10-01T02:34:22.282Z,0
2022-10-01T02:35:25.435Z,0
2022-10-01T02:37:30.891Z,0
2022-10-01T02:39:37.876Z,0
2022-10-01T02:41:43.632Z,0
2022-10-01T02:42:46.493Z,0
2022-10-01T02:44:53.145Z,0
2022-10-01T02:46:59.936Z,0
2022-10-01T02:48:02.538Z,0
2022-10-01T02:50:08.681Z,0
2022-10-01T02:52:15.019Z,0
2022-10-01T02:53:18.374Z,0
2022-10-01T02:55:23.779Z,0
2022-10-01T02:57:29.274Z,0
2022-10-01T02:58:32.286Z,0
2022-10-01T02:59:36.215Z,0
2022-10-01T03:00:39.328Z,0
2022-10-01T03:02:46.778Z,0
2022-10-01T03:04:52.788Z,0
2022-10-01T03:06:59.112Z,0
2022-10-01T03:08:02.198Z,0
2022-10-01T03:10:08.969Z,0
2022-10-01T03:12:15.017Z,0
2022-10-01T03:14:21.460Z,0
2022-10-01T03:15:25.144Z,0
2022-10-01T03:17:31.518Z,0
2022-10-01T03:19:36.874Z,0
2022-10-01T03:21:44.054Z,0
2022-10-01T03:22:47.152Z,0
2022-10-01T03:24:52.813Z,0
2022-10-01T03:26:59.175Z,0
2022-10-01T03:29:05.440Z,0
2022-10-01T03:30:08.630Z,0
2022-10-01T03:32:15.898Z,0
2022-10-01T03:34:23.133Z,0
2022-10-01T03:36:27.797Z,0
2022-10-01T03:37:31.530Z,0
2022-10-01T03:39:37.190Z,0
2022-10-01T03:41:42.684Z,0
2022-10-01T03:43:48.948Z,0
2022-10-01T03:44:52.394Z,0
2022-10-01T03:46:58.929Z,0
2022-10-01T03:49:04.943Z,0
2022-10-01T03:51:11.718Z,0
2022-10-01T03:52:15.145Z,0
2022-10-01T03:54:21.108Z,0
2022-10-01T03:56:27.319Z,0
2022-10-01T03:58:33.069Z,0
2022-10-01T03:59:35.850Z,0
2022-10-01T04:00:38.922Z,0
2022-10-01T04:01:43.337Z,0
2022-10-01T04:03:51.725Z,0
2022-10-01T04:04:54.872Z,0
2022-10-01T04:05:57.467Z,0
2022-10-01T04:07:00.257Z,0
2022-10-01T04:09:05.650Z,0
2022-10-01T04:10:08.544Z,0
2022-10-01T04:11:11.534Z,0
2022-10-01T04:12:15.269Z,0
2022-10-01T04:14:21.772Z,0
2022-10-01T04:16:28.844Z,0
2022-10-01T04:17:31.520Z,0
2022-10-01T04:19:38.420Z,0
2022-10-01T04:21:43.907Z,0
2022-10-01T04:23:50.389Z,0
2022-10-01T04:24:53.283Z,0
2022-10-01T04:26:59.210Z,0
2022-10-01T04:29:06.066Z,0
2022-10-01T04:30:08.861Z,0
2022-10-01T04:32:15.484Z,0
2022-10-01T04:34:21.734Z,0
2022-10-01T04:36:28.348Z,0
2022-10-01T04:37:31.421Z,0
2022-10-01T04:39:36.656Z,0
2022-10-01T04:41:42.006Z,0
2022-10-01T04:43:48.611Z,0
2022-10-01T04:44:52.322Z,0
2022-10-01T04:46:57.977Z,0
2022-10-01T04:49:04.262Z,0
2022-10-01T04:51:11.602Z,0
2022-10-01T04:52:15.612Z,0
2022-10-01T04:53:17.771Z,0
2022-10-01T04:54:20.556Z,0
2022-10-01T04:56:26.563Z,0
2022-10-01T04:58:32.224Z,0
2022-10-01T04:59:35.593Z,0
2022-10-01T05:00:39.203Z,0
2022-10-01T05:01:43.552Z,0
2022-10-01T05:03:49.391Z,0
2022-10-01T05:05:55.660Z,0
2022-10-01T05:06:59.705Z,1
2022-10-01T05:08:03.162Z,1
2022-10-01T05:09:05.596Z,2
2022-10-01T05:11:11.282Z,2
2022-10-01T05:13:17.323Z,1
2022-10-01T05:14:20.311Z,1
2022-10-01T05:15:23.475Z,1
2022-10-01T05:16:27.326Z,1
2022-10-01T05:18:33.599Z,1
2022-10-01T05:20:39.290Z,1
2022-10-01T05:21:42.697Z,2
2022-10-01T05:23:48.014Z,2
2022-10-01T05:25:54.338Z,2
2022-10-01T05:28:00.278Z,2
2022-10-01T05:29:03.185Z,2
2022-10-01T05:31:09.991Z,3
2022-10-01T05:33:16.723Z,2
2022-10-01T05:35:22.778Z,3
2022-10-01T05:36:25.585Z,2
2022-10-01T05:38:32.319Z,3
2022-10-01T05:40:37.889Z,3
2022-10-01T05:42:43.842Z,3
2022-10-01T05:43:47.202Z,3
2022-10-01T05:45:53.586Z,3
2022-10-01T05:47:59.866Z,3
2022-10-01T05:50:05.527Z,3
2022-10-01T05:51:09.143Z,3
2022-10-01T05:53:16.708Z,4
2022-10-01T05:55:23.644Z,5
2022-10-01T05:57:29.801Z,6
2022-10-01T05:58:33.266Z,5
2022-10-01T06:00:39.450Z,5
2022-10-01T06:02:47.018Z,7
2022-10-01T06:04:52.844Z,7
2022-10-01T06:05:56.572Z,7
2022-10-01T06:08:02.359Z,8
2022-10-01T06:10:08.739Z,8
2022-10-01T06:12:21.788Z,9
2022-10-01T06:13:24.779Z,10
2022-10-01T06:15:30.857Z,10
2022-10-01T06:17:38.324Z,12
2022-10-01T06:19:44.829Z,15
2022-10-01T06:20:47.338Z,16
2022-10-01T06:22:53.421Z,18
2022-10-01T06:25:00.027Z,19
2022-10-01T06:27:06.507Z,23
2022-10-01T06:28:09.988Z,24
2022-10-01T06:30:16.005Z,27
2022-10-01T06:32:21.761Z,26
2022-10-01T06:34:26.846Z,26
2022-10-01T06:35:29.641Z,29
2022-10-01T06:37:35.950Z,27
2022-10-01T06:39:42.370Z,25
2022-10-01T06:41:48.744Z,25
2022-10-01T06:42:58.778Z,25
2022-10-01T06:44:01.767Z,23
2022-10-01T06:45:04.640Z,22
2022-10-01T06:47:12.203Z,22
2022-10-01T06:49:17.809Z,32
2022-10-01T06:50:20.695Z,22
2022-10-01T06:52:26.299Z,40
2022-10-01T06:54:33.099Z,42
2022-10-01T06:56:40.206Z,45
2022-10-01T06:57:43.970Z,44
2022-10-01T06:59:50.562Z,45
2022-10-01T07:01:58.365Z,40
2022-10-01T07:04:04.457Z,36
2022-10-01T07:05:07.270Z,36
2022-10-01T07:07:12.702Z,41
2022-10-01T07:09:18.466Z,46
2022-10-01T07:10:22.152Z,45
2022-10-01T07:11:25.174Z,43
2022-10-01T07:12:28.672Z,41
2022-10-01T07:14:34.989Z,43
2022-10-01T07:15:37.990Z,41
2022-10-01T07:16:41.983Z,40
2022-10-01T07:17:45.672Z,40
2022-10-01T07:19:51.198Z,39
2022-10-01T07:20:54.836Z,37
2022-10-01T07:21:57.911Z,35
2022-10-01T07:23:00.619Z,35
2022-10-01T07:25:07.205Z,34
2022-10-01T07:26:10.848Z,34
2022-10-01T07:27:13.389Z,34
2022-10-01T07:28:18.613Z,33
2022-10-01T07:30:25.355Z,34
2022-10-01T07:32:31.385Z,40
2022-10-01T07:33:34.174Z,43
2022-10-01T07:35:39.543Z,40
2022-10-01T07:37:45.246Z,30
2022-10-01T07:38:48.400Z,25
2022-10-01T07:39:52.128Z,20
2022-10-01T07:40:55.992Z,19
2022-10-01T07:43:02.141Z,19
2022-10-01T07:45:09.092Z,23
2022-10-01T07:46:12.526Z,22
2022-10-01T07:48:18.977Z,31
2022-10-01T07:50:25.505Z,41
2022-10-01T07:52:31.487Z,35
2022-10-01T07:53:34.278Z,34
2022-10-01T07:55:40.223Z,33
2022-10-01T07:57:46.827Z,28
2022-10-01T07:59:57.986Z,34
2022-10-01T08:01:01.636Z,42
2022-10-01T08:03:08.562Z,62
2022-10-01T08:05:14.868Z,65
2022-10-01T08:06:26.011Z,54
2022-10-01T08:07:29.085Z,60
2022-10-01T08:08:32.533Z,55
2022-10-01T08:09:35.963Z,61
2022-10-01T08:10:38.737Z,45
2022-10-01T08:12:43.965Z,49
2022-10-01T08:13:46.746Z,49
2022-10-01T08:14:49.764Z,58
2022-10-01T08:15:53.255Z,53
2022-10-01T08:17:59.963Z,56
2022-10-01T08:19:03.029Z,47
2022-10-01T08:20:06.223Z,37
2022-10-01T08:21:09.046Z,44
2022-10-01T08:23:15.450Z,39
2022-10-01T08:24:17.726Z,37
2022-10-01T08:25:21.075Z,28
2022-10-01T08:26:23.861Z,26
2022-10-01T08:28:30.159Z,29
2022-10-01T08:30:36.160Z,42
2022-10-01T08:31:40.371Z,54
2022-10-01T08:33:46.134Z,49
2022-10-01T08:34:57.074Z,43
2022-10-01T08:36:00.799Z,31
2022-10-01T08:38:07.440Z,25
2022-10-01T08:39:10.881Z,25
2022-10-01T08:41:23.647Z,31
2022-10-01T08:43:30.057Z,30
2022-10-01T08:44:32.572Z,30
2022-10-01T08:46:38.890Z,32
2022-10-01T08:48:45.838Z,33
2022-10-01T08:49:49.370Z,41
2022-10-01T08:50:51.880Z,39
2022-10-01T08:51:54.597Z,33
2022-10-01T08:52:57.499Z,33
2022-10-01T08:54:01.528Z,29
2022-10-01T08:55:04.327Z,28
2022-10-01T08:57:10.809Z,32
2022-10-01T08:58:13.502Z,31
2022-10-01T09:00:19.943Z,32
2022-10-01T09:02:26.153Z,46
2022-10-01T09:04:33.783Z,41
2022-10-01T09:05:37.155Z,31
2022-10-01T09:07:44.100Z,33
2022-10-01T09:08:46.883Z,38
2022-10-01T09:10:53.321Z,30
2022-10-01T09:12:59.184Z,34
2022-10-01T09:14:02.911Z,37
2022-10-01T09:16:09.691Z,37
2022-10-01T09:18:15.699Z,31
2022-10-01T09:19:19.202Z,27
2022-10-01T09:21:25.471Z,34
2022-10-01T09:22:28.366Z,38
2022-10-01T09:24:34.455Z,47
2022-10-01T09:26:40.689Z,46
2022-10-01T09:28:46.872Z,41
2022-10-01T09:29:49.749Z,40
2022-10-01T09:31:54.812Z,34
2022-10-01T09:34:00.735Z,34
2022-10-01T09:35:07.096Z,32
2022-10-01T09:37:14.253Z,43
2022-10-01T09:38:17.697Z,42
2022-10-01T09:40:23.472Z,41
2022-10-01T09:42:30.097Z,50
2022-10-01T09:43:33.135Z,39
2022-10-01T09:44:35.649Z,38
2022-10-01T09:45:39.075Z,37
2022-10-01T09:47:45.158Z,36
2022-10-01T09:48:47.672Z,30
2022-10-01T09:50:54.039Z,32
2022-10-01T09:53:00.647Z,38
2022-10-01T09:54:03.731Z,38
2022-10-01T09:56:09.596Z,35
2022-10-01T09:58:16.124Z,30
2022-10-01T09:59:18.768Z,26
2022-10-01T10:01:24.317Z,30
2022-10-01T10:03:31.319Z,24
2022-10-01T10:04:34.749Z,22
2022-10-01T10:06:41.793Z,31
2022-10-01T10:08:48.248Z,32
2022-10-01T10:10:54.972Z,51
2022-10-01T10:11:58.143Z,54
2022-10-01T10:14:03.991Z,51
2022-10-01T10:16:11.632Z,55
2022-10-01T10:17:14.441Z,46
2022-10-01T10:18:25.966Z,42
2022-10-01T10:19:29.635Z,37
2022-10-01T10:21:36.186Z,43
2022-10-01T10:22:39.881Z,46
2022-10-01T10:23:42.635Z,38
2022-10-01T10:24:46.089Z,37
2022-10-01T10:26:52.517Z,44
2022-10-01T10:27:56.187Z,49
2022-10-01T10:28:59.990Z,51
2022-10-01T10:30:02.994Z,45
2022-10-01T10:32:08.631Z,47
2022-10-01T10:33:11.979Z,49
2022-10-01T10:34:15.195Z,45
2022-10-01T10:35:17.632Z,47
2022-10-01T10:37:23.636Z,40
2022-10-01T10:38:26.840Z,48
2022-10-01T10:40:33.762Z,39
2022-10-01T10:42:42.276Z,31
2022-10-01T10:44:48.011Z,29
2022-10-01T10:45:51.572Z,33
2022-10-01T10:47:58.487Z,35
2022-10-01T10:50:04.537Z,38
2022-10-01T10:51:07.348Z,38
2022-10-01T10:52:10.061Z,38
2022-10-01T10:53:13.136Z,46
2022-10-01T10:55:20.247Z,48
2022-10-01T10:56:24.200Z,36
2022-10-01T10:57:27.930Z,38
2022-10-01T10:58:30.885Z,34
2022-10-01T11:00:37.663Z,36
2022-10-01T11:01:41.663Z,33
2022-10-01T11:02:45.005Z,34
2022-10-01T11:03:48.216Z,36
2022-10-01T11:05:55.168Z,36
2022-10-01T11:06:58.257Z,39
2022-10-01T11:09:03.880Z,37
2022-10-01T11:11:10.843Z,37
2022-10-01T11:12:14.472Z,36
2022-10-01T11:14:25.456Z,35
2022-10-01T11:16:32.940Z,36
2022-10-01T11:17:35.862Z,41
2022-10-01T11:19:42.022Z,30
2022-10-01T11:20:45.391Z,35
2022-10-01T11:21:48.733Z,30
2022-10-01T11:22:52.001Z,31
2022-10-01T11:23:55.732Z,25
2022-10-01T11:26:02.304Z,26
2022-10-01T11:28:09.178Z,26
2022-10-01T11:29:11.923Z,28
2022-10-01T11:31:18.237Z,36
2022-10-01T11:32:21.642Z,36
2022-10-01T11:34:27.518Z,37
2022-10-01T11:36:35.487Z,39
2022-10-01T11:37:38.326Z,41
2022-10-01T11:39:43.562Z,39
2022-10-01T11:41:50.135Z,36
2022-10-01T11:43:56.061Z,38
2022-10-01T11:45:02.470Z,42
2022-10-01T11:47:08.268Z,44
2022-10-01T11:49:14.457Z,35
2022-10-01T11:50:17.250Z,38
2022-10-01T11:52:22.862Z,33
2022-10-01T11:54:29.629Z,33
2022-10-01T11:55:32.837Z,33
2022-10-01T11:57:41.408Z,30
2022-10-01T11:58:44.255Z,34
2022-10-01T12:00:50.137Z,43
2022-10-01T12:01:53.582Z,39
2022-10-01T12:03:59.724Z,50
2022-10-01T12:06:05.905Z,51
2022-10-01T12:07:08.341Z,44
2022-10-01T12:08:11.757Z,42
2022-10-01T12:09:15.106Z,43
2022-10-01T12:10:18.178Z,49
2022-10-01T12:11:20.966Z,49
2022-10-01T12:12:24.061Z,55
2022-10-01T12:14:30.968Z,61
2022-10-01T12:15:33.778Z,63
2022-10-01T12:17:42.259Z,69
2022-10-01T12:19:48.541Z,84
2022-10-01T12:20:51.695Z,95
2022-10-01T12:22:57.997Z,83
2022-10-01T12:25:04.864Z,102
2022-10-01T12:26:08.574Z,89
2022-10-01T12:28:15.213Z,113
2022-10-01T12:30:22.293Z,123
2022-10-01T12:31:25.816Z,118
2022-10-01T12:33:31.861Z,94
2022-10-01T12:34:34.658Z,90
2022-10-01T12:36:41.664Z,62
2022-10-01T12:37:44.585Z,79
2022-10-01T12:38:47.594Z,84
2022-10-01T12:39:50.659Z,69
2022-10-01T12:41:57.565Z,99
2022-10-01T12:43:06.225Z,112
2022-10-01T12:45:12.810Z,53
2022-10-01T12:47:19.814Z,60
2022-10-01T12:48:23.075Z,53
2022-10-01T12:50:29.341Z,47
2022-10-01T12:51:31.808Z,42
2022-10-01T12:52:35.089Z,39
2022-10-01T12:53:38.511Z,41
2022-10-01T12:54:41.613Z,42
2022-10-01T12:56:47.396Z,40
2022-10-01T12:57:50.738Z,50
2022-10-01T12:59:56.828Z,126
2022-10-01T13:02:04.921Z,58
2022-10-01T13:03:08.413Z,52
2022-10-01T13:05:14.551Z,55
2022-10-01T13:06:17.536Z,43
2022-10-01T13:07:20.990Z,68
2022-10-01T13:08:24.130Z,89
2022-10-01T13:10:30.489Z,190
2022-10-01T13:11:33.631Z,211
2022-10-01T13:13:39.866Z,179
2022-10-01T13:15:46.743Z,195
2022-10-01T13:16:49.894Z,235
2022-10-01T13:18:56.344Z,221
2022-10-01T13:21:02.180Z,175
2022-10-01T13:22:05.603Z,134
2022-10-01T13:23:08.713Z,135
2022-10-01T13:24:12.167Z,141
2022-10-01T13:26:17.918Z,182
2022-10-01T13:27:21.336Z,146
2022-10-01T13:28:24.881Z,130
2022-10-01T13:29:28.072Z,117
2022-10-01T13:31:34.472Z,346
2022-10-01T13:32:38.273Z,202
2022-10-01T13:34:45.811Z,119
2022-10-01T13:36:51.320Z,140
2022-10-01T13:38:57.620Z,177
2022-10-01T13:40:00.221Z,177
2022-10-01T13:42:06.635Z,113
2022-10-01T13:44:13.245Z,145
2022-10-01T13:45:18.885Z,128
2022-10-01T13:47:25.684Z,164
2022-10-01T13:49:32.843Z,153
2022-10-01T13:50:36.268Z,136
2022-10-01T13:52:42.742Z,105
2022-10-01T13:54:48.194Z,91
2022-10-01T13:55:50.812Z,78
2022-10-01T13:57:56.111Z,75
2022-10-01T14:00:01.606Z,81
2022-10-01T14:01:04.864Z,57
2022-10-01T14:03:12.479Z,49
2022-10-01T14:04:16.292Z,71
2022-10-01T14:05:19.410Z,87
2022-10-01T14:06:23.140Z,82
2022-10-01T14:07:26.859Z,101
2022-10-01T14:08:29.188Z,86
2022-10-01T14:09:32.372Z,99
2022-10-01T14:11:38.689Z,111
2022-10-01T14:12:41.559Z,128
2022-10-01T14:13:44.337Z,136
2022-10-01T14:14:47.116Z,131
2022-10-01T14:16:54.505Z,99
2022-10-01T14:17:57.582Z,71
2022-10-01T14:20:05.339Z,68
2022-10-01T14:21:09.090Z,60
2022-10-01T14:23:15.349Z,42
2022-10-01T14:25:22.083Z,44
2022-10-01T14:26:25.177Z,41
2022-10-01T14:28:31.795Z,41
2022-10-01T14:29:34.638Z,54
2022-10-01T14:31:40.613Z,62
2022-10-01T14:32:43.272Z,63
2022-10-01T14:34:49.883Z,56
2022-10-01T14:36:56.491Z,63
2022-10-01T14:38:00.134Z,62
2022-10-01T14:40:06.819Z,56
2022-10-01T14:42:19.401Z,36
2022-10-01T14:44:25.313Z,23
2022-10-01T14:45:28.456Z,21
2022-10-01T14:47:35.291Z,19
2022-10-01T14:49:41.541Z,43
2022-10-01T14:50:51.066Z,40
2022-10-01T14:51:54.826Z,40
2022-10-01T14:52:58.593Z,38
2022-10-01T14:55:04.500Z,28
2022-10-01T14:57:10.584Z,28
2022-10-01T14:58:13.777Z,26
2022-10-01T15:00:22.884Z,9
2022-10-01T15:02:29.304Z,7
2022-10-01T15:03:32.828Z,11
2022-10-01T15:05:38.468Z,10
2022-10-01T15:07:45.118Z,7
2022-10-01T15:08:48.497Z,6
2022-10-01T15:09:51.378Z,6
2022-10-01T15:10:55.035Z,5
2022-10-01T15:13:01.362Z,6
2022-10-01T15:14:04.810Z,6
2022-10-01T15:16:10.693Z,8
2022-10-01T15:18:16.697Z,10
2022-10-01T15:19:20.320Z,11
2022-10-01T15:20:23.102Z,11
2022-10-01T15:21:25.929Z,12
2022-10-01T15:23:32.715Z,12
2022-10-01T15:24:35.885Z,11
2022-10-01T15:25:38.952Z,10
2022-10-01T15:26:42.106Z,10
2022-10-01T15:28:48.673Z,11
2022-10-01T15:29:58.863Z,13
2022-10-01T15:31:02.027Z,15
2022-10-01T15:32:04.561Z,17
2022-10-01T15:33:07.627Z,19
2022-10-01T15:34:10.806Z,22
2022-10-01T15:36:16.925Z,25
2022-10-01T15:37:19.995Z,26
2022-10-01T15:39:27.376Z,28
2022-10-01T15:41:35.078Z,30
2022-10-01T15:43:40.405Z,36
2022-10-01T15:44:43.013Z,40
2022-10-01T15:46:49.015Z,58
2022-10-01T15:48:54.770Z,78
2022-10-01T15:49:57.335Z,81
2022-10-01T15:52:05.059Z,75
2022-10-01T15:54:11.636Z,64
2022-10-01T15:56:18.431Z,52
2022-10-01T15:57:21.898Z,47
2022-10-01T15:59:28.113Z,39
2022-10-01T16:01:34.638Z,33
2022-10-01T16:02:36.818Z,31
2022-10-01T16:04:42.785Z,30
2022-10-01T16:06:48.785Z,28
2022-10-01T16:07:51.583Z,29
2022-10-01T16:08:54.032Z,27
2022-10-01T16:09:57.132Z,27
2022-10-01T16:12:03.804Z,26
2022-10-01T16:13:07.242Z,24
2022-10-01T16:15:13.116Z,22
2022-10-01T16:17:19.386Z,18
2022-10-01T16:18:22.672Z,17
2022-10-01T16:20:29.469Z,16
2022-10-01T16:22:35.173Z,15
2022-10-01T16:23:38.794Z,14
2022-10-01T16:24:41.693Z,14
2022-10-01T16:25:44.784Z,14
2022-10-01T16:27:51.403Z,13
2022-10-01T16:28:54.750Z,14
2022-10-01T16:30:06.910Z,13
2022-10-01T16:31:10.929Z,11
2022-10-01T16:33:17.198Z,9
2022-10-01T16:35:23.653Z,8
2022-10-01T16:36:26.742Z,7
2022-10-01T16:38:33.322Z,6
2022-10-01T16:40:39.825Z,5
2022-10-01T16:42:46.581Z,3
2022-10-01T16:43:49.729Z,3
2022-10-01T16:45:56.844Z,3
2022-10-01T16:48:02.419Z,2
2022-10-01T16:50:08.107Z,1
2022-10-01T16:51:11.487Z,1
2022-10-01T16:53:17.796Z,0
2022-10-01T16:55:23.078Z,0
2022-10-01T16:56:37.520Z,0
2022-10-01T16:57:40.076Z,0
2022-10-01T16:58:43.868Z,0
2022-10-01T17:00:50.224Z,0
2022-10-01T17:02:57.005Z,0
2022-10-01T17:05:03.663Z,0
2022-10-01T17:06:06.727Z,0
2022-10-01T17:07:09.798Z,0
2022-10-01T17:08:12.672Z,0
2022-10-01T17:10:19.274Z,0
2022-10-01T17:12:25.225Z,0
2022-10-01T17:13:28.381Z,0
2022-10-01T17:15:34.745Z,0
2022-10-01T17:17:42.531Z,0
2022-10-01T17:19:48.771Z,0
2022-10-01T17:20:51.772Z,0
2022-10-01T17:22:57.391Z,0
2022-10-01T17:25:04.005Z,0
2022-10-01T17:27:10.739Z,0
2022-10-01T17:28:14.212Z,0
2022-10-01T17:30:19.970Z,0
2022-10-01T17:32:26.697Z,0
2022-10-01T17:34:31.175Z,0
2022-10-01T17:35:33.979Z,0
2022-10-01T17:37:41.944Z,0
2022-10-01T17:39:48.256Z,0
2022-10-01T17:40:58.124Z,0
2022-10-01T17:42:01.510Z,0
2022-10-01T17:43:05.189Z,0
2022-10-01T17:45:11.569Z,0
2022-10-01T17:47:19.320Z,0
2022-10-01T17:49:27.240Z,0
2022-10-01T17:50:29.817Z,0
2022-10-01T17:51:32.875Z,0
2022-10-01T17:52:36.319Z,0
2022-10-01T17:53:44.869Z,0
2022-10-01T17:54:47.852Z,0
2022-10-01T17:56:55.383Z,0
2022-10-01T17:59:01.042Z,0
2022-10-01T18:00:03.867Z,0
2022-10-01T18:02:45.209Z,0
2022-10-01T18:03:48.589Z,0
2022-10-01T18:04:51.953Z,0
2022-10-01T18:07:01.970Z,0
2022-10-01T18:09:07.932Z,0
2022-10-01T18:10:11.327Z,0
2022-10-01T18:11:14.692Z,0
2022-10-01T18:12:18.704Z,0
2022-10-01T18:14:24.372Z,0
2022-10-01T18:15:28.291Z,0
2022-10-01T18:16:32.121Z,0
2022-10-01T18:18:25.516Z,0
2022-10-01T18:20:56.693Z,0
2022-10-01T18:23:02.811Z,0
2022-10-01T18:25:10.735Z,0
2022-10-01T18:27:16.802Z,0
2022-10-01T18:28:20.648Z,0
2022-10-01T18:29:23.491Z,0
2022-10-01T18:30:26.655Z,0
2022-10-01T18:32:33.820Z,0
2022-10-01T18:33:37.860Z,0
2022-10-01T18:35:44.787Z,0
2022-10-01T18:37:50.404Z,0
2022-10-01T18:38:53.485Z,0
2022-10-01T18:40:59.719Z,0
2022-10-01T18:43:05.953Z,0
2022-10-01T18:44:09.141Z,0
2022-10-01T18:45:12.596Z,0
2022-10-01T18:46:16.758Z,0
2022-10-01T18:48:22.291Z,0
2022-10-01T18:49:25.796Z,0
2022-10-01T18:51:32.292Z,0
2022-10-01T18:52:35.756Z,0
2022-10-01T18:54:41.641Z,0
2022-10-01T18:56:48.535Z,0
2022-10-01T18:58:54.511Z,0
2022-10-01T18:59:57.965Z,0
2022-10-01T19:02:06.126Z,0
2022-10-01T19:04:12.354Z,0
2022-10-01T19:05:16.127Z,0
2022-10-01T19:07:22.150Z,0
2022-10-01T19:09:28.723Z,0
2022-10-01T19:10:32.150Z,0
2022-10-01T19:12:38.701Z,0
2022-10-01T19:13:41.589Z,0
2022-10-01T19:15:48.090Z,0
2022-10-01T19:16:51.469Z,0
2022-10-01T19:18:57.676Z,0
2022-10-01T19:21:04.906Z,0
2022-10-01T19:22:08.336Z,0
2022-10-01T19:24:13.759Z,0
2022-10-01T19:25:17.105Z,0
2022-10-01T19:26:19.987Z,0
2022-10-01T19:27:23.098Z,0
2022-10-01T19:28:27.459Z,0
2022-10-01T19:29:30.090Z,0
2022-10-01T19:30:33.082Z,0
2022-10-01T19:31:36.492Z,0
2022-10-01T19:32:39.374Z,0
2022-10-01T19:33:42.368Z,0
2022-10-01T19:35:48.606Z,0
2022-10-01T19:36:52.103Z,0
2022-10-01T19:38:59.034Z,0
2022-10-01T19:40:01.854Z,0
2022-10-01T19:42:06.866Z,0
2022-10-01T19:43:09.899Z,0
2022-10-01T19:44:12.698Z,0
2022-10-01T19:45:15.023Z,0
2022-10-01T19:47:21.868Z,0
2022-10-01T19:48:24.929Z,0
2022-10-01T19:50:31.514Z,0
2022-10-01T19:52:38.335Z,0
2022-10-01T19:53:41.055Z,0
2022-10-01T19:55:47.258Z,0
2022-10-01T19:57:53.828Z,0
2022-10-01T19:58:57.157Z,0
2022-10-01T20:01:04.091Z,0
2022-10-01T20:03:09.900Z,0
2022-10-01T20:04:13.051Z,0
2022-10-01T20:06:17.643Z,0
2022-10-01T20:08:24.668Z,0
2022-10-01T20:09:28.091Z,0
2022-10-01T20:11:34.297Z,0
2022-10-01T20:12:37.292Z,0
2022-10-01T20:14:44.390Z,0
2022-10-01T20:16:50.029Z,0
2022-10-01T20:17:52.338Z,0
2022-10-01T20:19:58.578Z,0
2022-10-01T20:21:02.300Z,0
2022-10-01T20:23:07.917Z,0
2022-10-01T20:24:11.397Z,0
2022-10-01T20:26:16.759Z,0
2022-10-01T20:28:23.671Z,0
2022-10-01T20:29:26.238Z,0
2022-10-01T20:31:33.541Z,0
2022-10-01T20:32:36.204Z,0
2022-10-01T20:33:39.553Z,0
2022-10-01T20:34:42.418Z,0
2022-10-01T20:36:48.013Z,0
2022-10-01T20:37:50.813Z,0
2022-10-01T20:39:57.646Z,0
2022-10-01T20:42:04.151Z,0
2022-10-01T20:43:06.880Z,0
2022-10-01T20:45:13.184Z,0
2022-10-01T20:47:19.286Z,0
2022-10-01T20:48:22.002Z,0
2022-10-01T20:49:24.522Z,0
2022-10-01T20:50:27.900Z,0
2022-10-01T20:52:34.326Z,0
2022-10-01T20:53:37.222Z,0
2022-10-01T20:55:44.222Z,0
2022-10-01T20:57:50.868Z,0
2022-10-01T20:58:54.216Z,0
2022-10-01T21:00:59.854Z,0
2022-10-01T21:02:03.261Z,0
2022-10-01T21:04:09.596Z,0
2022-10-01T21:05:12.408Z,0
2022-10-01T21:07:18.733Z,0
2022-10-01T21:09:24.272Z,0
2022-10-01T21:10:27.649Z,0
2022-10-01T21:12:34.287Z,0
2022-10-01T21:14:41.109Z,0
2022-10-01T21:15:44.193Z,0
2022-10-01T21:17:51.299Z,0
2022-10-01T21:19:57.092Z,0
2022-10-01T21:20:59.874Z,0
2022-10-01T21:23:05.375Z,0
2022-10-01T21:25:12.334Z,0
2022-10-01T21:26:15.246Z,0
2022-10-01T21:28:21.912Z,0
2022-10-01T21:30:28.190Z,0
2022-10-01T21:31:31.064Z,0
2022-10-01T21:33:36.986Z,0
2022-10-01T21:34:39.763Z,0
2022-10-01T21:36:45.359Z,0
2022-10-01T21:37:48.449Z,0
2022-10-01T21:38:51.312Z,0
2022-10-01T21:39:53.746Z,0
2022-10-01T21:40:57.481Z,0
2022-10-01T21:43:04.768Z,0
2022-10-01T21:44:12.798Z,0
2022-10-01T21:45:16.157Z,0
2022-10-01T21:46:19.731Z,0
2022-10-01T21:48:25.443Z,0
2022-10-01T21:50:31.059Z,0
2022-10-01T21:51:34.415Z,0
2022-10-01T21:53:41.180Z,0
2022-10-01T21:55:47.796Z,0
2022-10-01T21:56:51.532Z,0
2022-10-01T21:58:57.644Z,0
2022-10-01T22:01:04.978Z,0
2022-10-01T22:02:08.089Z,0
2022-10-01T22:04:14.252Z,0
2022-10-01T22:05:17.445Z,0
2022-10-01T22:07:24.064Z,0
2022-10-01T22:09:30.534Z,0
2022-10-01T22:10:33.609Z,0
2022-10-01T22:11:35.849Z,0
2022-10-01T22:12:39.054Z,0
2022-10-01T22:14:46.025Z,0
2022-10-01T22:15:48.189Z,0
2022-10-01T22:17:56.214Z,0
2022-10-01T22:20:03.109Z,0
2022-10-01T22:21:06.551Z,0
2022-10-01T22:22:09.870Z,0
2022-10-01T22:23:13.030Z,0
2022-10-01T22:25:19.174Z,0
2022-10-01T22:26:22.636Z,0
2022-10-01T22:28:29.305Z,0
2022-10-01T22:30:35.540Z,0
2022-10-01T22:31:39.115Z,0
2022-10-01T22:33:46.258Z,0
2022-10-01T22:35:51.700Z,0
2022-10-01T22:36:54.645Z,0
2022-10-01T22:37:57.254Z,0
2022-10-01T22:39:00.093Z,0
2022-10-01T22:41:05.540Z,0
2022-10-01T22:42:08.633Z,0
2022-10-01T22:44:14.424Z,0
2022-10-01T22:46:20.739Z,0
2022-10-01T22:47:23.809Z,0
2022-10-01T22:48:26.985Z,0
2022-10-01T22:49:30.289Z,0
2022-10-01T22:50:32.337Z,0
2022-10-01T22:51:35.248Z,0
2022-10-01T22:52:38.338Z,0
2022-10-01T22:53:41.445Z,0
2022-10-01T22:55:47.446Z,0
2022-10-01T22:57:53.602Z,0
2022-10-01T22:58:56.701Z,0
2022-10-01T23:01:02.497Z,0
2022-10-01T23:02:07.188Z,0
2022-10-01T23:04:12.098Z,0
2022-10-01T23:06:17.845Z,0
2022-10-01T23:07:20.841Z,0
2022-10-01T23:08:24.334Z,0
2022-10-01T23:09:27.594Z,0
2022-10-01T23:11:33.567Z,0
2022-10-01T23:12:36.282Z,0
2022-10-01T23:14:41.887Z,0
2022-10-01T23:15:45.606Z,0
2022-10-01T23:17:52.355Z,0
2022-10-01T23:19:59.766Z,0
2022-10-01T23:21:03.229Z,0
2022-10-01T23:23:09.387Z,0
2022-10-01T23:24:12.218Z,0
2022-10-01T23:26:17.948Z,0